Time;durP1;ratioP1;P1;durP2;ratioP2;P2;SDS_P1;SDS_P2;PMS_P1;PMS_P2;Temp;Humidity;BMP_temperature;BMP_pressure;BME280_temperature;BME280_humidity;BME280_pressure;Samples;Min_cycle;Max_cycle;Signal;HPM_P1;HPM_P2
2022/12/05 00:01:41;;;;;;;30.60;14.67;;;9.00;62.40;;;;;;4970529;28;20965;-87
2022/12/05 00:04:11;;;;;;;28.83;14.40;;;9.00;63.30;;;;;;4962780;28;20467;-87
2022/12/05 00:06:39;;;;;;;28.80;12.93;;;9.10;63.10;;;;;;4996121;28;20486;-87
2022/12/05 00:09:08;;;;;;;23.70;12.57;;;9.00;63.20;;;;;;4995522;28;20513;-91
2022/12/05 00:11:37;;;;;;;21.07;12.07;;;8.90;63.40;;;;;;4997368;28;20514;-88
2022/12/05 00:14:07;;;;;;;24.70;13.90;;;9.10;63.00;;;;;;4993103;28;20790;-88
2022/12/05 00:16:36;;;;;;;23.93;12.70;;;9.20;62.70;;;;;;4970421;28;20458;-89
2022/12/05 00:19:07;;;;;;;29.27;13.37;;;9.10;62.70;;;;;;4966943;28;21088;-91
2022/12/05 00:21:36;;;;;;;25.50;12.93;;;9.20;62.80;;;;;;4962286;28;20498;-89
2022/12/05 00:24:05;;;;;;;25.50;14.13;;;9.00;63.30;;;;;;4954689;28;21147;-88
2022/12/05 00:26:33;;;;;;;36.40;15.70;;;9.20;63.00;;;;;;5010581;28;20455;-88
2022/12/05 00:29:00;;;;;;;33.80;15.07;;;9.10;63.20;;;;;;4976103;28;20452;-89
2022/12/05 00:31:28;;;;;;;31.57;13.80;;;9.00;63.20;;;;;;4991849;28;20946;-86
2022/12/05 00:33:56;;;;;;;25.10;13.10;;;9.20;63.00;;;;;;4962525;28;20487;-90
2022/12/05 00:36:25;;;;;;;33.57;14.37;;;9.30;63.60;;;;;;4956086;28;20438;-88
2022/12/05 00:38:54;;;;;;;23.93;13.13;;;9.30;62.40;;;;;;4975780;28;20714;-87
2022/12/05 00:41:26;;;;;;;30.30;15.50;;;9.40;62.10;;;;;;4991109;28;20444;-88
2022/12/05 00:43:54;;;;;;;29.53;14.30;;;9.40;62.40;;;;;;4957363;28;20475;-88
2022/12/05 00:46:23;;;;;;;27.70;15.33;;;9.40;62.40;;;;;;4992792;28;20452;-85
2022/12/05 00:48:52;;;;;;;31.73;15.00;;;9.40;62.10;;;;;;4974571;28;20482;-87
2022/12/05 00:51:20;;;;;;;23.70;12.77;;;9.40;62.00;;;;;;4961839;28;20462;-88
2022/12/05 00:53:50;;;;;;;25.40;15.17;;;9.40;62.20;;;;;;4995094;28;20455;-88
2022/12/05 00:56:18;;;;;;;25.43;12.10;;;9.30;62.50;;;;;;4977701;28;20986;-88
2022/12/05 00:58:45;;;;;;;25.23;11.33;;;9.10;63.30;;;;;;4944827;28;20450;-90
2022/12/05 01:01:15;;;;;;;25.20;14.77;;;9.20;63.40;;;;;;5000184;28;20543;-87
2022/12/05 01:03:43;;;;;;;24.10;13.00;;;9.30;62.70;;;;;;4970869;28;20491;-89
2022/12/05 01:06:11;;;;;;;24.23;12.20;;;9.40;62.50;;;;;;4984944;28;20463;-87
2022/12/05 01:08:39;;;;;;;29.33;12.00;;;9.10;63.10;;;;;;4983284;28;20460;-90
2022/12/05 01:11:08;;;;;;;19.10;12.00;;;8.90;63.90;;;;;;5010727;28;20460;-87
2022/12/05 01:13:36;;;;;;;22.57;11.70;;;8.90;64.10;;;;;;4993084;28;20854;-87
2022/12/05 01:16:03;;;;;;;20.83;13.50;;;8.90;64.20;;;;;;4999074;28;20445;-90
2022/12/05 01:18:31;;;;;;;19.63;10.80;;;9.10;63.80;;;;;;5005143;28;20463;-87
2022/12/05 01:20:58;;;;;;;27.97;12.33;;;9.30;63.10;;;;;;4973804;28;20459;-89
2022/12/05 01:23:25;;;;;;;30.37;14.30;;;9.40;62.70;;;;;;4958554;28;20476;-87
2022/12/05 01:25:52;;;;;;;23.53;12.43;;;9.40;62.90;;;;;;4963740;28;20480;-87
2022/12/05 01:28:21;;;;;;;25.60;13.73;;;9.50;62.60;;;;;;4952546;28;20456;-90
2022/12/05 01:30:49;;;;;;;21.23;11.97;;;9.50;62.50;;;;;;4970446;28;20509;-88
2022/12/05 01:33:17;;;;;;;23.30;12.47;;;9.50;62.40;;;;;;4995610;28;20487;-88
2022/12/05 01:35:44;;;;;;;24.73;12.17;;;9.60;62.30;;;;;;4964226;28;20499;-88
2022/12/05 01:38:12;;;;;;;40.83;14.50;;;9.60;61.90;;;;;;4970156;28;20940;-88
2022/12/05 01:40:40;;;;;;;30.90;12.60;;;9.60;62.00;;;;;;4962079;28;21105;-86
2022/12/05 01:43:14;;;;;;;28.40;14.20;;;9.60;61.80;;;;;;4994080;28;20484;-88
2022/12/05 01:45:44;;;;;;;27.10;12.20;;;9.70;61.60;;;;;;4977378;28;20535;-87
2022/12/05 01:48:15;;;;;;;23.93;12.97;;;9.70;61.40;;;;;;4960748;28;20505;-88
2022/12/05 01:50:42;;;;;;;22.90;14.00;;;9.80;61.50;;;;;;4994998;28;20466;-92
2022/12/05 01:53:09;;;;;;;23.30;13.63;;;9.90;61.20;;;;;;4967200;28;20577;-88
2022/12/05 01:55:37;;;;;;;21.10;12.80;;;9.80;61.40;;;;;;4962284;28;20436;-87
2022/12/05 01:58:06;;;;;;;29.27;13.40;;;9.70;61.60;;;;;;5008397;28;20467;-89
2022/12/05 02:00:33;;;;;;;25.57;13.00;;;9.70;61.60;;;;;;4954285;28;20447;-88
2022/12/05 02:03:07;;;;;;;28.87;12.83;;;9.40;62.20;;;;;;4984481;28;20538;-87
2022/12/05 02:05:36;;;;;;;24.87;12.80;;;9.40;62.50;;;;;;4966117;28;20476;-89
2022/12/05 02:08:06;;;;;;;22.63;12.93;;;9.50;62.50;;;;;;4968567;28;21060;-87
2022/12/05 02:10:37;;;;;;;29.20;13.50;;;9.50;62.50;;;;;;4999147;28;20480;-87
2022/12/05 02:13:13;;;;;;;23.73;13.67;;;9.60;62.20;;;;;;4968291;28;20471;-87
2022/12/05 02:15:45;;;;;;;30.27;15.63;;;9.70;62.10;;;;;;4978462;28;20453;-89
2022/12/05 02:18:38;;;;;;;31.70;12.90;;;9.80;61.70;;;;;;4994007;28;20551;-87
2022/12/05 02:21:45;;;;;;;33.20;13.73;;;9.80;62.00;;;;;;4959567;28;20565;-89
2022/12/05 02:24:38;;;;;;;28.63;13.23;;;9.70;62.10;;;;;;4968281;28;20553;-90
2022/12/05 02:27:21;;;;;;;30.17;14.20;;;9.50;62.80;;;;;;5007135;28;20482;-88
2022/12/05 02:30:02;;;;;;;28.00;13.80;;;9.50;62.70;;;;;;4994938;28;20451;-89
2022/12/05 02:32:42;;;;;;;36.17;14.80;;;9.60;62.80;;;;;;4950462;28;20479;-93
2022/12/05 02:35:17;;;;;;;30.90;12.60;;;9.50;62.70;;;;;;4944978;28;20479;-87
2022/12/05 02:37:51;;;;;;;29.97;14.73;;;9.00;64.10;;;;;;4961468;28;20462;-88
2022/12/05 02:40:24;;;;;;;25.40;12.87;;;9.10;64.30;;;;;;4960675;28;20503;-91
2022/12/05 02:42:59;;;;;;;33.00;14.93;;;9.00;64.40;;;;;;4961823;28;20483;-87
2022/12/05 02:45:31;;;;;;;27.60;14.20;;;9.10;64.30;;;;;;4974139;28;20460;-87
2022/12/05 02:48:00;;;;;;;30.80;14.90;;;9.10;64.50;;;;;;4942103;28;20460;-86
2022/12/05 02:50:32;;;;;;;38.83;14.83;;;9.10;64.10;;;;;;4952270;28;20451;-87
2022/12/05 02:53:04;;;;;;;34.63;16.03;;;9.10;64.20;;;;;;4967732;28;20487;-89
2022/12/05 02:55:33;;;;;;;29.90;13.50;;;9.10;64.10;;;;;;4997636;28;20436;-88
2022/12/05 02:58:05;;;;;;;28.77;14.37;;;9.20;64.10;;;;;;4975902;28;20776;-89
2022/12/05 03:00:35;;;;;;;29.23;13.83;;;9.30;64.10;;;;;;4968042;28;20965;-91
2022/12/05 03:03:10;;;;;;;42.00;15.97;;;9.20;64.00;;;;;;4977173;28;20481;-89
2022/12/05 03:05:42;;;;;;;36.93;16.77;;;9.10;64.60;;;;;;4951363;28;20819;-86
2022/12/05 03:08:17;;;;;;;33.60;15.50;;;9.10;64.60;;;;;;4960760;28;20478;-90
2022/12/05 03:10:45;;;;;;;35.77;15.53;;;9.00;64.70;;;;;;4969204;28;20456;-89
2022/12/05 03:13:17;;;;;;;36.33;14.73;;;9.10;64.60;;;;;;4994598;28;20466;-88
2022/12/05 03:15:49;;;;;;;31.43;16.13;;;9.20;64.10;;;;;;4994815;28;20452;-88
2022/12/05 03:18:21;;;;;;;31.90;13.60;;;9.30;63.50;;;;;;4970689;28;20474;-88
2022/12/05 03:20:52;;;;;;;33.70;13.90;;;9.40;63.40;;;;;;4967505;28;20447;-90
2022/12/05 03:23:22;;;;;;;28.43;14.70;;;9.50;63.00;;;;;;5010292;28;20475;-86
2022/12/05 03:26:00;;;;;;;29.60;13.60;;;9.60;62.50;;;;;;5013885;28;20477;-87
2022/12/05 03:28:35;;;;;;;26.33;15.53;;;9.40;63.00;;;;;;4971444;28;20456;-87
2022/12/05 03:31:08;;;;;;;28.33;14.33;;;9.40;62.70;;;;;;4980993;28;20462;-90
2022/12/05 03:33:42;;;;;;;30.73;15.73;;;9.30;62.80;;;;;;4995850;28;20474;-87
2022/12/05 03:36:13;;;;;;;26.87;13.50;;;9.10;63.20;;;;;;4955415;28;20513;-87
2022/12/05 03:38:47;;;;;;;33.77;13.50;;;8.90;64.10;;;;;;4966667;28;20439;-90
2022/12/05 03:41:23;;;;;;;30.70;14.40;;;9.00;64.30;;;;;;4997412;28;20460;-87
2022/12/05 03:43:56;;;;;;;29.97;14.70;;;9.20;63.60;;;;;;4964017;28;20463;-85
2022/12/05 03:46:30;;;;;;;35.43;16.90;;;9.40;63.30;;;;;;4987907;28;20471;-89
2022/12/05 03:49:02;;;;;;;33.00;13.20;;;9.50;63.10;;;;;;4946311;28;21020;-87
2022/12/05 03:51:35;;;;;;;38.20;20.93;;;9.40;62.30;;;;;;4989019;28;21265;-91
2022/12/05 03:54:08;;;;;;;29.77;15.17;;;9.40;62.90;;;;;;4976984;28;20488;-86
2022/12/05 03:56:39;;;;;;;30.10;15.50;;;9.30;62.70;;;;;;4989721;28;20461;-89
2022/12/05 03:59:14;;;;;;;39.30;15.17;;;9.40;62.90;;;;;;4972079;28;20452;-87
2022/12/05 04:01:44;;;;;;;31.93;14.90;;;9.50;62.70;;;;;;4964000;28;20557;-86
2022/12/05 04:04:17;;;;;;;30.50;14.80;;;9.60;62.40;;;;;;4980928;28;20463;-91
2022/12/05 04:06:47;;;;;;;23.93;12.20;;;9.70;62.20;;;;;;4979189;28;20466;-90
2022/12/05 04:09:19;;;;;;;28.87;13.90;;;9.70;61.70;;;;;;4978374;28;20501;-88
2022/12/05 04:11:50;;;;;;;30.77;14.87;;;9.60;62.50;;;;;;4967303;28;20481;-90
2022/12/05 04:14:21;;;;;;;31.17;14.67;;;9.60;62.60;;;;;;5011124;28;20462;-89
2022/12/05 04:17:03;;;;;;;27.73;14.20;;;9.60;62.30;;;;;;4982505;28;20460;-89
2022/12/05 04:22:19;;;;;;;26.70;12.90;;;9.60;62.00;;;;;;4998037;28;20462;-86
2022/12/05 04:27:40;;;;;;;28.27;13.33;;;9.30;62.90;;;;;;4959750;28;20811;-87
2022/12/05 04:30:11;;;;;;;24.10;13.57;;;9.40;62.80;;;;;;4993629;28;20448;-89
2022/12/05 04:32:45;;;;;;;28.07;13.33;;;9.50;62.40;;;;;;4977757;28;20480;-89
2022/12/05 04:35:18;;;;;;;29.30;14.43;;;9.60;62.60;;;;;;4942899;28;21665;-88
2022/12/05 04:37:50;;;;;;;28.17;13.60;;;9.70;62.30;;;;;;4947900;28;20459;-90
2022/12/05 04:40:22;;;;;;;30.90;14.20;;;9.80;61.90;;;;;;4979784;28;20923;-87
2022/12/05 04:42:52;;;;;;;33.20;14.40;;;9.80;61.70;;;;;;4986934;28;20479;-86
2022/12/05 04:45:21;;;;;;;27.60;13.57;;;9.80;61.80;;;;;;4962804;28;20527;-89
2022/12/05 04:47:53;;;;;;;30.53;14.40;;;9.90;61.60;;;;;;4990944;28;20460;-87
2022/12/05 04:50:22;;;;;;;31.20;13.77;;;10.00;60.20;;;;;;4984951;28;20456;-87
2022/12/05 04:52:54;;;;;;;22.07;11.53;;;9.90;60.60;;;;;;4960152;28;20464;-88
2022/12/05 04:55:24;;;;;;;26.77;12.47;;;9.90;60.60;;;;;;4953788;28;20456;-87
2022/12/05 04:57:59;;;;;;;26.30;11.97;;;9.90;61.20;;;;;;4992882;28;20452;-89
2022/12/05 05:00:28;;;;;;;27.40;13.50;;;9.90;60.80;;;;;;4982888;28;20466;-88
2022/12/05 05:03:03;;;;;;;22.50;11.67;;;9.80;61.40;;;;;;4984420;28;20499;-87
2022/12/05 05:05:31;;;;;;;32.70;12.67;;;9.90;61.30;;;;;;4971315;28;21003;-86
2022/12/05 05:07:58;;;;;;;31.30;14.50;;;10.00;60.10;;;;;;4953432;28;20517;-88
2022/12/05 05:10:33;;;;;;;23.97;12.50;;;9.90;61.20;;;;;;4980594;28;20491;-88
2022/12/05 05:13:00;;;;;;;31.90;14.20;;;9.90;61.10;;;;;;4961371;28;20467;-89
2022/12/05 05:15:27;;;;;;;28.27;13.20;;;9.90;61.00;;;;;;4953909;28;21029;-88
2022/12/05 05:17:56;;;;;;;31.43;13.27;;;9.70;61.50;;;;;;4958883;28;20448;-88
2022/12/05 05:20:26;;;;;;;25.77;11.57;;;9.40;62.30;;;;;;4971163;28;20455;-87
2022/12/05 05:22:54;;;;;;;27.20;12.80;;;9.60;62.10;;;;;;4993084;28;20472;-87
2022/12/05 05:25:22;;;;;;;24.90;11.83;;;9.60;61.80;;;;;;4980852;28;21027;-89
2022/12/05 05:27:50;;;;;;;23.60;12.43;;;9.40;62.30;;;;;;4955348;28;20969;-90
2022/12/05 05:30:18;;;;;;;21.90;12.47;;;9.30;63.00;;;;;;4978850;28;20451;-90
2022/12/05 05:32:46;;;;;;;26.47;12.20;;;9.40;62.90;;;;;;4966756;28;20973;-88
2022/12/05 05:35:14;;;;;;;24.63;12.23;;;9.60;62.40;;;;;;4962575;28;20528;-88
2022/12/05 05:37:42;;;;;;;24.90;12.57;;;9.70;62.80;;;;;;4968097;28;20904;-87
2022/12/05 05:40:11;;;;;;;29.17;14.33;;;9.80;62.00;;;;;;5007680;28;20452;-86
2022/12/05 05:42:42;;;;;;;34.27;13.77;;;9.90;61.40;;;;;;4976221;28;20472;-87
2022/12/05 05:45:10;;;;;;;30.47;13.67;;;10.00;60.20;;;;;;4982397;28;21019;-87
2022/12/05 05:47:37;;;;;;;25.50;13.33;;;10.00;59.90;;;;;;4981049;28;20453;-87
2022/12/05 05:50:06;;;;;;;29.67;13.17;;;9.80;60.90;;;;;;4948452;28;20492;-87
2022/12/05 05:52:35;;;;;;;30.20;16.07;;;9.60;61.80;;;;;;4974119;28;20486;-91
2022/12/05 05:55:02;;;;;;;33.33;15.57;;;9.70;61.60;;;;;;4986701;28;20450;-86
2022/12/05 05:57:30;;;;;;;32.20;15.63;;;9.30;61.60;;;;;;4948240;28;20507;-87
2022/12/05 05:59:57;;;;;;;28.63;14.37;;;9.10;63.20;;;;;;4967946;28;20549;-89
2022/12/05 06:02:24;;;;;;;26.73;13.90;;;9.20;63.00;;;;;;4980292;28;20466;-87
2022/12/05 06:04:51;;;;;;;30.20;12.73;;;9.30;62.60;;;;;;4975773;28;20488;-87
2022/12/05 06:07:18;;;;;;;22.30;11.60;;;9.40;63.00;;;;;;4995079;28;20984;-87
2022/12/05 06:09:46;;;;;;;28.57;12.80;;;9.50;62.60;;;;;;4963033;28;20447;-87
2022/12/05 06:12:14;;;;;;;28.70;14.53;;;9.60;62.30;;;;;;4980676;28;20475;-87
2022/12/05 06:14:40;;;;;;;26.30;14.37;;;9.60;62.60;;;;;;4975087;28;20456;-86
2022/12/05 06:17:07;;;;;;;27.47;15.10;;;9.70;62.30;;;;;;4960892;28;20451;-88
2022/12/05 06:19:34;;;;;;;25.37;14.17;;;9.70;62.30;;;;;;4964030;28;20466;-86
2022/12/05 06:22:01;;;;;;;26.13;12.93;;;9.70;62.50;;;;;;4946960;28;20470;-87
2022/12/05 06:24:29;;;;;;;28.63;13.30;;;9.80;62.20;;;;;;4975815;28;20920;-91
2022/12/05 06:26:57;;;;;;;28.03;13.13;;;9.80;61.70;;;;;;5009448;28;20483;-87
2022/12/05 06:29:24;;;;;;;30.80;13.10;;;9.90;61.70;;;;;;4953893;28;20467;-87
2022/12/05 06:31:51;;;;;;;26.10;15.10;;;9.90;61.90;;;;;;4939875;28;20478;-87
2022/12/05 06:34:18;;;;;;;41.50;18.80;;;9.90;61.70;;;;;;4988543;28;20451;-88
2022/12/05 06:36:45;;;;;;;32.60;15.70;;;10.00;60.50;;;;;;4980551;28;21015;-89
2022/12/05 06:39:12;;;;;;;26.37;15.77;;;9.90;61.60;;;;;;4969117;28;20488;-87
2022/12/05 06:41:39;;;;;;;32.70;15.53;;;9.90;61.70;;;;;;4994608;28;22031;-88
2022/12/05 06:44:09;;;;;;;24.47;14.47;;;10.00;60.60;;;;;;4972052;28;20471;-87
2022/12/05 06:46:36;;;;;;;30.80;14.80;;;10.00;60.30;;;;;;4950305;28;21001;-87
2022/12/05 06:49:03;;;;;;;30.73;15.53;;;10.00;60.00;;;;;;4955950;28;20459;-88
2022/12/05 06:51:30;;;;;;;30.50;15.27;;;10.10;60.70;;;;;;5005119;28;20830;-88
2022/12/05 06:53:57;;;;;;;32.90;13.60;;;10.00;59.80;;;;;;4983367;28;20455;-87
2022/12/05 06:56:24;;;;;;;21.60;11.63;;;10.00;59.90;;;;;;4981530;28;20444;-89
2022/12/05 06:58:52;;;;;;;17.73;10.50;;;9.90;60.40;;;;;;4974698;28;20811;-87
2022/12/05 07:01:41;;;;;;;19.17;11.73;;;9.80;59.40;;;;;;4997061;28;20795;-87
2022/12/05 07:04:12;;;;;;;21.33;10.57;;;9.40;61.00;;;;;;5003516;28;20814;-87
2022/12/05 07:06:40;;;;;;;19.13;9.33;;;9.40;62.10;;;;;;4973812;28;20478;-87
2022/12/05 07:09:07;;;;;;;18.70;9.57;;;9.40;61.10;;;;;;4978065;28;20804;-86
2022/12/05 07:11:35;;;;;;;16.57;10.27;;;9.40;61.90;;;;;;4997317;28;20453;-87
2022/12/05 07:14:02;;;;;;;17.87;10.33;;;9.40;61.60;;;;;;4981428;28;20550;-87
2022/12/05 07:16:31;;;;;;;20.83;8.83;;;9.60;61.30;;;;;;4971222;28;20479;-88
2022/12/05 07:18:58;;;;;;;15.83;9.80;;;9.70;61.10;;;;;;4961716;28;21072;-89
2022/12/05 07:21:25;;;;;;;17.90;8.80;;;9.50;60.60;;;;;;4975732;28;20519;-88
2022/12/05 07:23:54;;;;;;;15.63;9.73;;;9.40;60.60;;;;;;4973780;28;20440;-87
2022/12/05 07:26:23;;;;;;;15.40;8.90;;;9.40;61.00;;;;;;4978469;28;20567;-87
2022/12/05 07:28:51;;;;;;;13.97;7.30;;;9.40;61.10;;;;;;4970765;28;21051;-89
2022/12/05 07:31:21;;;;;;;17.80;10.47;;;9.40;61.00;;;;;;4952657;28;20969;-87
2022/12/05 07:33:50;;;;;;;18.07;9.23;;;9.30;60.70;;;;;;5000559;28;20551;-87
2022/12/05 07:36:19;;;;;;;18.80;10.43;;;9.40;60.90;;;;;;4968273;28;20490;-87
2022/12/05 07:38:46;;;;;;;15.00;8.00;;;9.20;61.20;;;;;;5004582;28;20559;-87
2022/12/05 07:41:19;;;;;;;14.03;8.87;;;9.00;61.90;;;;;;4996093;28;20448;-87
2022/12/05 07:43:46;;;;;;;19.00;10.00;;;9.10;61.90;;;;;;4982330;28;20459;-86
2022/12/05 07:46:13;;;;;;;18.80;9.80;;;9.10;61.90;;;;;;4981878;28;20504;-85
2022/12/05 07:48:41;;;;;;;19.63;10.37;;;9.20;61.70;;;;;;4981906;28;20456;-87
2022/12/05 07:51:10;;;;;;;12.73;7.80;;;9.20;62.00;;;;;;4952178;28;20451;-87
2022/12/05 07:53:37;;;;;;;12.97;7.93;;;9.30;61.40;;;;;;4961210;28;20472;-84
2022/12/05 07:56:06;;;;;;;14.00;8.27;;;9.40;61.00;;;;;;4955635;28;20467;-88
2022/12/05 07:58:35;;;;;;;13.57;7.47;;;9.40;60.90;;;;;;4992164;28;20461;-85
2022/12/05 08:01:06;;;;;;;13.93;8.07;;;9.20;61.30;;;;;;4994903;28;20448;-87
2022/12/05 08:03:34;;;;;;;10.97;7.03;;;8.90;61.40;;;;;;4995268;28;20558;-87
2022/12/05 08:06:02;;;;;;;13.63;7.47;;;9.00;62.00;;;;;;4989713;28;20471;-87
2022/12/05 08:08:30;;;;;;;15.93;8.30;;;9.00;61.90;;;;;;5001189;28;20460;-87
2022/12/05 08:11:03;;;;;;;11.83;7.60;;;9.00;62.40;;;;;;4972571;28;20551;-90
2022/12/05 08:13:30;;;;;;;13.00;7.53;;;8.90;62.40;;;;;;4970901;28;20471;-88
2022/12/05 08:16:01;;;;;;;12.67;7.37;;;9.10;61.90;;;;;;4989686;28;20440;-87
2022/12/05 08:18:28;;;;;;;14.13;8.00;;;9.30;61.40;;;;;;4983255;28;20469;-87
2022/12/05 08:20:55;;;;;;;13.30;7.43;;;9.20;61.00;;;;;;4977956;28;20882;-87
2022/12/05 08:23:22;;;;;;;21.33;7.20;;;9.30;61.00;;;;;;4965750;28;20890;-87
2022/12/05 08:25:51;;;;;;;13.53;8.20;;;9.50;61.00;;;;;;4980956;28;20476;-87
2022/12/05 08:28:18;;;;;;;13.13;7.20;;;9.60;60.60;;;;;;4956230;28;20465;-87
2022/12/05 08:30:45;;;;;;;12.70;7.33;;;9.70;60.40;;;;;;4956827;28;20949;-91
2022/12/05 08:33:12;;;;;;;13.30;7.63;;;9.60;60.80;;;;;;4984209;28;21016;-87
2022/12/05 08:35:39;;;;;;;16.27;7.40;;;9.70;60.50;;;;;;4966158;28;20452;-88
2022/12/05 08:38:06;;;;;;;15.67;8.27;;;9.60;60.20;;;;;;4992128;28;21003;-87
2022/12/05 08:40:33;;;;;;;14.20;7.37;;;9.40;60.60;;;;;;5008939;28;20538;-89
2022/12/05 08:43:01;;;;;;;17.40;8.33;;;9.20;60.60;;;;;;4985670;28;20471;-86
2022/12/05 08:45:28;;;;;;;11.40;7.33;;;9.40;60.90;;;;;;4955217;28;20458;-88
2022/12/05 08:47:55;;;;;;;17.83;9.93;;;9.50;60.70;;;;;;4986224;28;20475;-87
2022/12/05 08:50:22;;;;;;;18.10;9.07;;;9.40;59.90;;;;;;4979404;28;20459;-88
2022/12/05 08:52:49;;;;;;;13.17;7.10;;;9.50;60.40;;;;;;4970147;28;20466;-88
2022/12/05 08:55:17;;;;;;;15.20;8.53;;;9.50;60.40;;;;;;4957085;28;20642;-88
2022/12/05 08:57:44;;;;;;;15.83;8.07;;;9.50;60.40;;;;;;4963010;28;20482;-88
2022/12/05 09:00:13;;;;;;;12.23;8.03;;;9.20;61.20;;;;;;4979670;28;20470;-88
2022/12/05 09:02:40;;;;;;;13.60;8.30;;;9.30;61.70;;;;;;4994709;28;20499;-88
2022/12/05 09:05:09;;;;;;;15.83;8.47;;;9.50;61.10;;;;;;4947338;28;20459;-87
2022/12/05 09:07:35;;;;;;;19.67;8.70;;;9.70;60.50;;;;;;4985723;28;20841;-87
2022/12/05 09:10:03;;;;;;;15.20;8.50;;;9.80;59.90;;;;;;4955707;28;20455;-89
2022/12/05 09:12:30;;;;;;;13.43;7.27;;;9.80;60.30;;;;;;4947763;28;20475;-85
2022/12/05 09:14:57;;;;;;;16.77;8.37;;;9.70;60.20;;;;;;4976043;28;20475;-87
2022/12/05 09:17:25;;;;;;;15.00;7.90;;;9.60;60.40;;;;;;4958725;28;20451;-87
2022/12/05 09:19:52;;;;;;;16.97;9.70;;;9.70;60.30;;;;;;5000813;28;20470;-87
2022/12/05 09:22:21;;;;;;;16.83;9.20;;;9.70;60.80;;;;;;4991455;28;20477;-89
2022/12/05 09:24:48;;;;;;;16.47;9.13;;;9.80;60.60;;;;;;4992942;28;20920;-87
2022/12/05 09:27:16;;;;;;;13.47;8.43;;;9.50;61.30;;;;;;4984771;28;20500;-87
2022/12/05 09:29:43;;;;;;;14.33;8.60;;;9.60;61.80;;;;;;4966030;28;20490;-88
2022/12/05 09:32:10;;;;;;;14.93;8.77;;;9.60;62.00;;;;;;4992246;28;20488;-87
2022/12/05 09:34:39;;;;;;;15.80;9.70;;;9.50;61.50;;;;;;4953912;28;20452;-89
2022/12/05 09:37:06;;;;;;;16.97;8.40;;;9.20;62.30;;;;;;4993914;28;20522;-88
2022/12/05 09:39:33;;;;;;;17.03;9.87;;;9.30;62.80;;;;;;4965532;28;20563;-88
2022/12/05 09:42:17;;;;;;;17.10;9.57;;;9.60;62.00;;;;;;4952842;28;20989;-89
2022/12/05 09:44:58;;;;;;;18.20;9.63;;;9.80;61.50;;;;;;4993378;28;20546;-87
2022/12/05 09:47:35;;;;;;;13.93;8.50;;;9.60;60.80;;;;;;4980687;28;20495;-87
2022/12/05 09:50:17;;;;;;;19.67;10.03;;;9.30;61.80;;;;;;4996436;28;20472;-88
2022/12/05 09:52:53;;;;;;;17.27;9.37;;;9.40;62.00;;;;;;4967822;28;20520;-88
2022/12/05 09:55:21;;;;;;;17.93;8.97;;;9.30;62.00;;;;;;4977509;28;20921;-88
2022/12/05 09:57:51;;;;;;;17.90;9.63;;;9.50;62.20;;;;;;5009857;28;20444;-88
2022/12/05 10:00:19;;;;;;;17.13;9.47;;;9.70;61.90;;;;;;4991563;28;20825;-88
2022/12/05 10:02:55;;;;;;;19.00;9.13;;;9.90;61.60;;;;;;4984895;28;20878;-87
2022/12/05 10:05:29;;;;;;;18.00;9.33;;;10.10;60.20;;;;;;4982371;28;20980;-88
2022/12/05 10:08:06;;;;;;;16.13;9.60;;;10.10;60.20;;;;;;5012829;28;20966;-86
2022/12/05 10:10:44;;;;;;;15.50;9.00;;;10.20;60.10;;;;;;4973747;28;20467;-86
2022/12/05 10:13:26;;;;;;;15.13;8.80;;;10.20;59.70;;;;;;4978802;28;20501;-90
2022/12/05 10:15:55;;;;;;;15.77;10.83;;;10.20;59.60;;;;;;5001427;28;20546;-87
2022/12/05 10:18:32;;;;;;;18.37;10.53;;;10.00;59.60;;;;;;4962881;28;20489;-88
2022/12/05 10:21:04;;;;;;;19.67;10.10;;;9.90;61.40;;;;;;4985365;28;20469;-88
2022/12/05 10:23:35;;;;;;;17.40;9.13;;;9.80;62.60;;;;;;5023896;28;20963;-86
2022/12/05 10:26:07;;;;;;;16.37;9.30;;;9.50;62.40;;;;;;4988718;28;20489;-88
2022/12/05 10:28:39;;;;;;;17.20;9.20;;;9.40;63.00;;;;;;5005460;28;20448;-87
2022/12/05 10:31:11;;;;;;;16.90;8.80;;;9.50;63.30;;;;;;4970149;28;20450;-88
2022/12/05 10:33:43;;;;;;;18.17;10.40;;;9.60;63.30;;;;;;4990008;28;20472;-88
2022/12/05 10:36:13;;;;;;;17.63;9.63;;;9.50;63.40;;;;;;4982777;28;22815;-88
2022/12/05 10:38:41;;;;;;;17.60;9.90;;;9.70;63.50;;;;;;4999072;28;20480;-88
2022/12/05 10:41:11;;;;;;;14.40;8.20;;;9.90;62.80;;;;;;4949782;28;20467;-88
2022/12/05 10:43:42;;;;;;;17.73;9.67;;;10.00;61.00;;;;;;4987286;28;20476;-91
2022/12/05 10:46:10;;;;;;;14.87;9.80;;;9.80;62.80;;;;;;4973981;28;20650;-87
2022/12/05 10:48:39;;;;;;;16.00;8.27;;;9.50;63.00;;;;;;4987156;28;20463;-88
2022/12/05 10:51:07;;;;;;;17.63;9.17;;;9.50;63.80;;;;;;4958464;28;20555;-87
2022/12/05 10:53:40;;;;;;;15.33;8.70;;;9.40;63.50;;;;;;4996353;28;20469;-88
2022/12/05 10:56:38;;;;;;;17.00;9.47;;;9.60;63.80;;;;;;4975093;28;20545;-87
2022/12/05 10:59:06;;;;;;;22.23;10.50;;;9.70;63.20;;;;;;4998121;28;20550;-87
2022/12/05 11:01:35;;;;;;;23.97;9.67;;;9.80;63.30;;;;;;4970979;28;20460;-87
2022/12/05 11:04:08;;;;;;;16.77;8.90;;;9.70;63.20;;;;;;4998096;28;20467;-87
2022/12/05 11:06:35;;;;;;;19.87;9.43;;;9.70;63.40;;;;;;5016095;28;20480;-86
2022/12/05 11:09:14;;;;;;;20.30;9.00;;;9.90;62.30;;;;;;4978166;28;20455;-87
2022/12/05 11:11:41;;;;;;;20.60;10.10;;;9.80;63.10;;;;;;4977354;28;20467;-89
2022/12/05 11:14:22;;;;;;;26.63;10.63;;;10.00;61.90;;;;;;4963060;28;20463;-87
2022/12/05 11:16:53;;;;;;;21.83;8.90;;;10.20;62.30;;;;;;4955159;28;20523;-86
2022/12/05 11:19:27;;;;;;;17.33;9.90;;;10.40;60.90;;;;;;4980959;28;20547;-88
2022/12/05 11:21:54;;;;;;;20.30;11.73;;;10.50;60.30;;;;;;4981014;28;20479;-87
2022/12/05 11:24:27;;;;;;;22.30;10.80;;;10.40;60.40;;;;;;4962214;28;20452;-90
2022/12/05 11:26:55;;;;;;;19.40;10.90;;;10.50;60.20;;;;;;4945515;28;20519;-87
2022/12/05 11:29:34;;;;;;;18.67;10.50;;;10.60;59.90;;;;;;4982156;28;20449;-89
2022/12/05 11:32:03;;;;;;;18.57;9.77;;;10.70;59.50;;;;;;4967173;28;20515;-89
2022/12/05 11:34:37;;;;;;;33.13;19.20;;;10.60;58.80;;;;;;4949078;28;20454;-89
2022/12/05 11:37:13;;;;;;;25.93;15.23;;;10.60;59.30;;;;;;4976213;28;20459;-87
2022/12/05 11:39:41;;;;;;;13.10;8.17;;;10.60;59.10;;;;;;4979052;28;20969;-90
2022/12/05 11:42:19;;;;;;;17.23;9.30;;;10.60;59.20;;;;;;4971289;28;20487;-88
2022/12/05 11:45:10;;;;;;;18.10;8.60;;;10.50;59.30;;;;;;4958082;28;20467;-88
2022/12/05 11:47:56;;;;;;;14.20;8.93;;;10.60;59.50;;;;;;4987553;28;21059;-88
2022/12/05 11:50:37;;;;;;;22.03;9.47;;;10.30;59.90;;;;;;4962618;28;20480;-87
2022/12/05 11:53:17;;;;;;;18.13;8.93;;;10.40;60.00;;;;;;4986052;28;20476;-87
2022/12/05 11:55:53;;;;;;;13.67;8.67;;;10.10;60.10;;;;;;4987657;28;20447;-87
2022/12/05 11:58:46;;;;;;;17.80;10.00;;;10.10;61.00;;;;;;4980653;28;20498;-88
2022/12/05 12:01:22;;;;;;;13.87;7.97;;;10.10;61.00;;;;;;4984901;28;20501;-88
2022/12/05 12:04:30;;;;;;;27.93;16.47;;;10.10;60.80;;;;;;4944339;28;20451;-88
2022/12/05 12:07:11;;;;;;;22.30;11.27;;;10.20;61.10;;;;;;4968337;28;20468;-88
2022/12/05 12:09:48;;;;;;;48.90;21.97;;;10.40;60.80;;;;;;5012553;28;20458;-87
2022/12/05 12:12:28;;;;;;;32.40;16.87;;;10.40;60.90;;;;;;5015260;28;20468;-87
2022/12/05 12:15:06;;;;;;;24.83;12.20;;;10.40;60.20;;;;;;4972118;28;20444;-86
2022/12/05 12:17:44;;;;;;;27.03;15.17;;;10.30;60.60;;;;;;5000254;28;20470;-87
2022/12/05 12:20:27;;;;;;;23.40;10.80;;;10.30;60.50;;;;;;4999544;28;20481;-89
2022/12/05 12:23:11;;;;;;;19.07;10.47;;;10.10;60.70;;;;;;4989640;28;20842;-90
2022/12/05 12:25:45;;;;;;;32.67;22.77;;;10.00;61.50;;;;;;4974710;28;20458;-90
2022/12/05 12:28:29;;;;;;;34.70;24.30;;;9.80;63.00;;;;;;4987852;28;21152;-88
2022/12/05 12:31:10;;;;;;;24.37;15.30;;;9.90;63.10;;;;;;4956944;28;20450;-87
2022/12/05 12:33:45;;;;;;;19.37;10.93;;;9.80;63.20;;;;;;4965185;28;20468;-87
2022/12/05 12:36:18;;;;;;;19.10;13.50;;;9.70;63.20;;;;;;4979672;28;21055;-88
2022/12/05 12:39:00;;;;;;;14.97;9.93;;;9.80;63.00;;;;;;4988978;28;20481;-87
2022/12/05 12:41:40;;;;;;;19.10;13.20;;;10.00;61.90;;;;;;4975675;28;20546;-85
2022/12/05 12:44:31;;;;;;;16.07;10.97;;;10.20;61.00;;;;;;4958620;28;20466;-90
2022/12/05 12:47:01;;;;;;;23.53;13.50;;;10.40;60.40;;;;;;4966493;28;20461;-87
2022/12/05 12:49:49;;;;;;;14.43;8.77;;;10.50;60.20;;;;;;4993463;28;20479;-90
2022/12/05 12:52:21;;;;;;;15.70;8.77;;;10.30;60.00;;;;;;4963000;28;20506;-87
2022/12/05 12:55:03;;;;;;;16.50;9.20;;;10.30;59.90;;;;;;4954844;28;20463;-89
2022/12/05 12:57:43;;;;;;;16.23;9.37;;;10.30;59.90;;;;;;4978913;28;20784;-89
2022/12/05 13:00:21;;;;;;;12.77;8.53;;;10.20;60.10;;;;;;4961954;28;20453;-88
2022/12/05 13:02:56;;;;;;;16.43;10.47;;;10.30;60.10;;;;;;5009960;28;20480;-89
2022/12/05 13:05:30;;;;;;;20.10;11.50;;;10.20;60.20;;;;;;4968017;28;20498;-90